createdAt,value
2018-07-11T00:00:32.927Z,99.92
2018-07-11T00:05:36.497Z,100.00
2018-07-11T00:10:40.006Z,99.84
2018-07-11T00:15:43.611Z,99.59
2018-07-11T00:20:47.614Z,99.78
2018-07-11T00:25:51.728Z,99.51
2018-07-11T00:30:55.857Z,98.32
2018-07-11T00:35:59.546Z,98.92
2018-07-11T00:41:03.509Z,96.93
2018-07-11T00:46:07.152Z,97.26
2018-07-11T00:51:11.301Z,97.17
2018-07-11T00:56:14.933Z,97.57
2018-07-11T01:01:18.514Z,97.19
2018-07-11T01:06:22.265Z,97.38
2018-07-11T01:11:26.449Z,97.85
2018-07-11T01:16:31.384Z,97.38
2018-07-11T01:21:35.709Z,97.47
2018-07-11T01:26:40.661Z,97.75
2018-07-11T01:31:44.161Z,97.00
2018-07-11T01:36:47.727Z,98.06
2018-07-11T01:41:52.208Z,97.77
2018-07-11T01:46:55.933Z,97.41
2018-07-11T01:52:10.676Z,97.39
2018-07-11T01:57:20.641Z,98.13
2018-07-11T02:02:26.187Z,99.09
2018-07-11T02:07:30.295Z,99.32
2018-07-11T02:12:34.021Z,99.88
2018-07-11T02:17:39.306Z,99.88
2018-07-11T02:22:43.386Z,100.00
2018-07-11T02:27:47.172Z,99.87
2018-07-11T02:32:50.829Z,100.00
2018-07-11T02:37:55.160Z,100.00
2018-07-11T02:42:58.707Z,100.00
2018-07-11T02:48:02.910Z,100.00
2018-07-11T02:53:06.865Z,100.00
2018-07-11T02:58:11.124Z,99.73
2018-07-11T03:03:15.185Z,99.85
2018-07-11T03:08:19.149Z,99.39
2018-07-11T03:13:22.712Z,99.35
2018-07-11T03:18:26.361Z,99.82
2018-07-11T03:23:30.001Z,100.00
2018-07-11T03:28:34.482Z,100.00
2018-07-11T03:33:38.050Z,100.00
2018-07-11T03:38:41.640Z,100.00
2018-07-11T03:43:46.194Z,100.00
2018-07-11T03:48:49.796Z,100.00
2018-07-11T03:53:53.413Z,100.00
2018-07-11T03:58:56.920Z,100.00
2018-07-11T04:04:00.611Z,100.00
2018-07-11T04:09:05.245Z,100.00
2018-07-11T04:14:08.828Z,100.00
2018-07-11T04:19:12.499Z,100.00
2018-07-11T04:24:17.200Z,100.00
2018-07-11T04:29:20.786Z,100.00
2018-07-11T04:34:25.598Z,100.00
2018-07-11T04:39:29.653Z,100.00
2018-07-11T04:44:33.897Z,100.00
2018-07-11T04:49:37.760Z,99.23
2018-07-11T04:54:41.406Z,97.89
2018-07-11T04:59:45.827Z,96.86
2018-07-11T05:04:49.472Z,91.85
2018-07-11T05:09:52.914Z,90.62
2018-07-11T05:14:56.469Z,89.66
2018-07-11T05:19:59.971Z,89.48
2018-07-11T05:25:03.670Z,87.07
2018-07-11T05:30:07.375Z,87.86
2018-07-11T05:35:11.183Z,87.13
2018-07-11T05:40:14.844Z,85.88
2018-07-11T05:45:18.894Z,86.41
2018-07-11T05:50:22.923Z,85.66
2018-07-11T05:55:27.484Z,86.38
2018-07-11T06:00:30.996Z,85.71
2018-07-11T06:05:34.580Z,83.79
2018-07-11T06:10:38.477Z,84.29
2018-07-11T06:15:42.813Z,82.35
2018-07-11T06:20:46.360Z,81.62
2018-07-11T06:25:49.985Z,78.91
2018-07-11T06:30:53.484Z,78.70
2018-07-11T06:35:57.192Z,78.57
2018-07-11T06:41:00.763Z,78.46
2018-07-11T06:46:04.448Z,78.14
2018-07-11T06:51:08.587Z,78.45
2018-07-11T06:56:13.399Z,78.81
2018-07-11T07:01:17.191Z,76.63
2018-07-11T07:06:20.901Z,76.75
2018-07-11T07:11:24.976Z,78.29
2018-07-11T07:16:28.612Z,77.00
2018-07-11T07:21:32.171Z,75.17
2018-07-11T07:26:35.958Z,78.32
2018-07-11T07:31:43.060Z,75.61
2018-07-11T07:36:46.732Z,74.81
2018-07-11T07:41:51.090Z,73.56
2018-07-11T07:47:01.654Z,74.63
2018-07-11T07:52:06.407Z,75.90
2018-07-11T07:57:10.749Z,73.67
2018-07-11T08:02:14.306Z,74.44
2018-07-11T08:07:18.257Z,75.89
2018-07-11T08:12:21.852Z,75.07
2018-07-11T08:17:25.531Z,74.37
2018-07-11T08:23:42.638Z,76.41
2018-07-11T08:31:06.417Z,74.35
2018-07-11T08:36:27.154Z,74.69
2018-07-11T08:45:56.768Z,73.98
2018-07-11T08:51:12.497Z,74.73
2018-07-11T08:57:34.020Z,71.99
2018-07-11T09:03:00.615Z,72.79
2018-07-11T09:08:45.388Z,72.56
2018-07-11T09:14:34.553Z,71.56
2018-07-11T09:19:53.101Z,71.14
2018-07-11T09:24:56.641Z,70.97
2018-07-11T09:30:00.356Z,69.54
2018-07-11T09:35:04.012Z,69.86
2018-07-11T09:40:07.639Z,70.84
2018-07-11T09:45:11.237Z,71.75
2018-07-11T09:50:15.384Z,72.68
2018-07-11T09:55:18.965Z,71.80
2018-07-11T10:00:33.561Z,70.21
2018-07-11T10:05:37.147Z,71.96
2018-07-11T10:10:40.685Z,76.00
2018-07-11T10:15:45.345Z,76.30
2018-07-11T10:20:48.922Z,77.95
2018-07-11T10:25:52.809Z,80.29
2018-07-11T10:30:56.707Z,77.77
2018-07-11T10:36:01.008Z,82.35
2018-07-11T10:41:05.506Z,84.82
2018-07-11T10:46:09.139Z,85.89
2018-07-11T10:51:12.703Z,86.31
2018-07-11T10:56:16.348Z,88.04
2018-07-11T11:01:19.913Z,87.59
2018-07-11T11:06:23.484Z,90.65
2018-07-11T11:11:27.484Z,88.66
2018-07-11T11:16:31.132Z,90.03
2018-07-11T11:21:34.917Z,92.92
2018-07-11T11:26:38.601Z,92.27
2018-07-11T11:31:42.265Z,92.19
2018-07-11T11:36:45.866Z,94.62
2018-07-11T11:41:49.853Z,95.65
2018-07-11T11:46:57.417Z,94.86
2018-07-11T11:52:01.015Z,93.31
2018-07-11T11:57:04.849Z,93.70
2018-07-11T12:02:08.360Z,93.92
2018-07-11T12:07:11.967Z,94.51
2018-07-11T12:12:15.643Z,92.47
2018-07-11T12:17:19.226Z,96.70
2018-07-11T12:22:24.819Z,97.61
2018-07-11T12:27:28.561Z,99.63
2018-07-11T12:32:32.481Z,100.00
2018-07-11T12:37:36.320Z,100.00
2018-07-11T12:42:39.941Z,100.00
2018-07-11T12:47:50.867Z,100.00
2018-07-11T12:52:54.405Z,100.00
2018-07-11T12:57:59.021Z,100.00
2018-07-11T13:03:02.642Z,100.00
2018-07-11T13:08:06.510Z,100.00
2018-07-11T13:13:12.981Z,100.00
2018-07-11T13:18:16.586Z,100.00
2018-07-11T13:23:20.081Z,100.00
2018-07-11T13:28:23.717Z,97.72
2018-07-11T13:33:27.429Z,99.01
2018-07-11T13:38:31.251Z,100.00
2018-07-11T13:43:34.902Z,100.00
2018-07-11T13:48:38.554Z,94.92
2018-07-11T13:53:42.372Z,94.05
2018-07-11T13:58:46.039Z,89.50
2018-07-11T14:03:49.628Z,84.16
2018-07-11T14:08:54.247Z,88.97
2018-07-11T14:13:57.800Z,91.32
2018-07-11T14:19:02.031Z,87.02
2018-07-11T14:24:05.579Z,79.14
2018-07-11T14:29:10.416Z,81.48
2018-07-11T14:34:14.040Z,79.11
2018-07-11T14:39:18.214Z,75.48
2018-07-11T14:44:21.993Z,78.68
2018-07-11T14:49:25.935Z,80.22
2018-07-11T14:54:29.770Z,78.74
2018-07-11T14:59:33.565Z,79.64
2018-07-11T15:04:37.060Z,82.50
2018-07-11T15:09:40.703Z,82.45
2018-07-11T15:14:44.294Z,83.96
2018-07-11T15:19:48.348Z,82.79
2018-07-11T15:24:51.879Z,81.31
2018-07-11T15:29:57.031Z,85.24
2018-07-11T15:35:00.555Z,84.66
2018-07-11T15:40:05.407Z,87.06
2018-07-11T15:45:09.060Z,89.31
2018-07-11T15:50:12.680Z,88.05
2018-07-11T15:55:16.305Z,88.95
2018-07-11T16:00:43.231Z,88.84
2018-07-11T16:05:47.857Z,87.36
2018-07-11T16:10:55.141Z,87.30
2018-07-11T16:15:59.571Z,87.22
2018-07-11T16:21:04.329Z,83.09
2018-07-11T16:26:07.905Z,83.47
2018-07-11T16:31:12.098Z,85.76
2018-07-11T16:36:16.811Z,84.86
2018-07-11T16:41:20.537Z,86.01
2018-07-11T16:46:24.117Z,86.10
2018-07-11T16:51:36.029Z,86.77
2018-07-11T16:56:39.877Z,87.86
2018-07-11T17:01:59.915Z,88.52
2018-07-11T17:07:15.698Z,87.69
2018-07-11T17:12:20.099Z,87.30
2018-07-11T17:17:25.615Z,88.25
2018-07-11T17:22:32.178Z,90.21
2018-07-11T17:27:35.867Z,90.06
2018-07-11T17:32:40.324Z,89.34
2018-07-11T17:37:43.933Z,91.82
2018-07-11T17:42:47.649Z,91.71
2018-07-11T17:50:04.490Z,93.90
2018-07-11T17:55:11.287Z,92.92
2018-07-11T18:00:33.689Z,92.94
2018-07-11T18:05:45.899Z,93.20
2018-07-11T18:10:52.868Z,93.78
2018-07-11T18:16:05.869Z,93.87
2018-07-11T18:21:21.313Z,92.72
2018-07-11T18:26:39.220Z,92.13
2018-07-11T18:31:59.030Z,95.12
2018-07-11T18:39:17.526Z,93.50
2018-07-11T18:44:40.708Z,92.75
2018-07-11T18:50:55.190Z,95.46
2018-07-11T18:56:09.771Z,95.02
2018-07-11T19:01:24.890Z,95.49
2018-07-11T19:06:42.015Z,96.42
2018-07-11T19:12:04.528Z,97.62
2018-07-11T19:17:19.878Z,97.35
2018-07-11T19:22:35.384Z,98.13
2018-07-11T19:27:47.190Z,98.43
2018-07-11T19:33:01.237Z,97.84
2018-07-11T19:38:38.627Z,98.48
2018-07-11T19:43:51.209Z,98.91
2018-07-11T19:49:05.171Z,99.86
2018-07-11T19:54:17.987Z,99.37
2018-07-11T19:59:28.905Z,99.27
2018-07-11T20:04:33.281Z,99.87
2018-07-11T20:09:36.896Z,99.47
2018-07-11T20:14:41.485Z,100.00
2018-07-11T20:19:45.185Z,99.99
2018-07-11T20:24:48.833Z,100.00
2018-07-11T20:29:53.105Z,99.45
2018-07-11T20:34:57.393Z,99.87
2018-07-11T20:40:00.939Z,100.00
2018-07-11T20:45:04.602Z,100.00
2018-07-11T20:50:09.974Z,99.36
2018-07-11T20:55:14.135Z,100.00
2018-07-11T21:00:30.315Z,98.85
2018-07-11T21:07:53.788Z,100.00
2018-07-11T21:15:11.538Z,100.00
2018-07-11T21:20:15.032Z,100.00
2018-07-11T21:25:18.781Z,100.00
2018-07-11T21:30:22.360Z,100.00
2018-07-11T21:35:26.046Z,100.00
2018-07-11T21:40:29.629Z,100.00
2018-07-11T21:45:33.485Z,100.00
2018-07-11T21:50:36.938Z,100.00
2018-07-11T21:55:40.471Z,100.00
2018-07-11T22:00:44.005Z,100.00
2018-07-11T22:05:47.680Z,100.00
2018-07-11T22:10:51.225Z,100.00
2018-07-11T22:15:54.913Z,100.00
2018-07-11T22:20:57.233Z,100.00
2018-07-11T22:25:59.781Z,100.00
2018-07-11T22:31:02.309Z,100.00
2018-07-11T22:36:04.666Z,100.00
2018-07-11T22:41:07.189Z,100.00
2018-07-11T22:46:09.508Z,100.00
2018-07-11T22:51:12.077Z,99.60
2018-07-11T22:56:14.386Z,98.07
2018-07-11T23:01:17.947Z,99.16
2018-07-11T23:06:20.249Z,100.00
2018-07-11T23:11:22.590Z,100.00
2018-07-11T23:16:24.896Z,100.00
2018-07-11T23:21:28.092Z,99.56
2018-07-11T23:26:30.422Z,99.39
2018-07-11T23:31:32.779Z,98.81
2018-07-11T23:36:35.077Z,97.48
2018-07-11T23:41:38.755Z,98.20
2018-07-11T23:46:41.071Z,97.68
2018-07-11T23:51:43.819Z,98.29
2018-07-11T23:56:46.153Z,97.78
